Time;durP1;ratioP1;P1;durP2;ratioP2;P2;SDS_P1;SDS_P2;PMS_P1;PMS_P2;Temp;Humidity;BMP_temperature;BMP_pressure;BME280_temperature;BME280_humidity;BME280_pressure;Samples;Min_cycle;Max_cycle;Signal;HPM_P1;HPM_P2
2021/03/24 00:00:46;;;;;;;43.20;24.00;;;6.50;99.90;;;;;;4986665;28;20471;-77
2021/03/24 00:03:13;;;;;;;34.77;22.47;;;6.60;99.90;;;;;;5028246;28;20781;-77
2021/03/24 00:05:41;;;;;;;37.70;22.13;;;6.50;99.90;;;;;;4981399;28;20428;-77
2021/03/24 00:08:08;;;;;;;33.00;21.77;;;6.50;99.90;;;;;;4976898;28;20432;-77
2021/03/24 00:10:35;;;;;;;38.00;22.27;;;6.50;99.90;;;;;;4975686;28;20428;-77
2021/03/24 00:13:01;;;;;;;25.67;19.60;;;6.50;99.90;;;;;;4990005;28;20413;-78
2021/03/24 00:15:27;;;;;;;34.17;22.30;;;6.60;99.90;;;;;;4974189;28;20447;-78
2021/03/24 00:17:53;;;;;;;30.17;21.87;;;6.60;99.90;;;;;;4973942;28;20496;-79
2021/03/24 00:20:28;;;;;;;29.20;20.50;;;6.50;99.90;;;;;;4974707;28;20428;-78
2021/03/24 00:22:54;;;;;;;30.33;20.43;;;6.30;99.90;;;;;;4973024;28;20420;-79
2021/03/24 00:25:20;;;;;;;34.63;20.60;;;6.30;99.90;;;;;;5005089;28;20439;-80
2021/03/24 00:27:48;;;;;;;31.77;20.57;;;6.30;99.90;;;;;;4988824;28;20425;-77
2021/03/24 00:30:16;;;;;;;34.73;21.63;;;6.30;99.90;;;;;;4975131;28;20455;-77
2021/03/24 00:32:42;;;;;;;29.40;19.90;;;6.20;99.90;;;;;;5008303;28;20428;-76
2021/03/24 00:35:09;;;;;;;37.67;22.90;;;6.20;99.90;;;;;;4992898;28;20487;-78
2021/03/24 00:37:35;;;;;;;34.73;22.50;;;6.10;99.90;;;;;;4982482;28;20464;-77
2021/03/24 00:40:02;;;;;;;34.20;22.90;;;6.20;99.90;;;;;;4990668;28;20417;-77
2021/03/24 00:42:27;;;;;;;28.40;21.27;;;6.10;99.90;;;;;;4973774;28;20480;-80
2021/03/24 00:44:53;;;;;;;30.97;20.00;;;6.20;99.90;;;;;;4989027;28;20936;-78
2021/03/24 00:47:18;;;;;;;27.90;20.23;;;6.30;99.90;;;;;;4979622;28;20196;-77
2021/03/24 00:49:44;;;;;;;30.00;20.13;;;6.30;99.90;;;;;;4981679;28;20575;-77
2021/03/24 00:52:10;;;;;;;29.63;21.70;;;6.10;99.90;;;;;;4978207;28;20561;-77
2021/03/24 00:54:36;;;;;;;34.47;22.50;;;6.10;99.90;;;;;;4976904;28;20441;-77
2021/03/24 00:57:02;;;;;;;34.70;19.93;;;6.10;99.90;;;;;;4992033;28;20538;-77
2021/03/24 00:59:27;;;;;;;29.90;20.43;;;6.10;99.90;;;;;;4994160;28;20873;-77
2021/03/24 01:01:53;;;;;;;27.20;20.13;;;6.10;99.90;;;;;;4987270;28;20173;-77
2021/03/24 01:04:18;;;;;;;41.57;24.10;;;6.00;99.90;;;;;;4990598;28;20259;-76
2021/03/24 01:06:44;;;;;;;26.80;19.57;;;5.90;99.90;;;;;;4981107;28;20203;-76
2021/03/24 01:09:10;;;;;;;30.13;20.00;;;5.70;99.90;;;;;;4994382;28;20267;-77
2021/03/24 01:11:41;;;;;;;29.67;20.53;;;5.60;99.90;;;;;;4989977;28;20231;-77
2021/03/24 01:14:09;;;;;;;27.90;20.33;;;5.60;99.90;;;;;;4986419;28;20185;-77
2021/03/24 01:16:36;;;;;;;33.30;20.90;;;5.60;99.90;;;;;;4989685;28;20470;-77
2021/03/24 01:19:02;;;;;;;30.23;20.67;;;5.60;99.90;;;;;;4992525;28;20918;-77
2021/03/24 01:21:28;;;;;;;35.57;20.10;;;5.60;99.90;;;;;;4989205;28;20442;-77
2021/03/24 01:23:53;;;;;;;39.37;20.43;;;5.70;99.90;;;;;;5022858;28;20427;-77
2021/03/24 01:26:19;;;;;;;29.63;19.70;;;5.80;99.90;;;;;;4980513;28;20750;-78
2021/03/24 01:28:45;;;;;;;38.10;19.07;;;5.70;99.90;;;;;;4973602;28;20220;-78
2021/03/24 01:31:11;;;;;;;28.97;20.63;;;5.70;99.90;;;;;;4990484;28;20928;-79
2021/03/24 01:33:36;;;;;;;27.93;19.07;;;5.70;99.90;;;;;;4976706;28;20282;-78
2021/03/24 01:36:02;;;;;;;33.13;21.37;;;5.50;99.90;;;;;;4983415;28;20577;-78
2021/03/24 01:38:28;;;;;;;36.57;20.30;;;5.60;99.90;;;;;;4991421;28;20232;-77
2021/03/24 01:40:57;;;;;;;33.33;20.77;;;5.60;99.90;;;;;;4992575;28;20404;-77
2021/03/24 01:43:24;;;;;;;27.53;18.23;;;5.60;99.90;;;;;;4991511;28;20179;-77
2021/03/24 01:46:18;;;;;;;28.67;18.80;;;5.50;99.90;;;;;;4976829;28;20432;-77
2021/03/24 01:48:48;;;;;;;26.37;17.23;;;5.40;99.90;;;;;;5006628;28;20946;-77
2021/03/24 01:51:15;;;;;;;33.07;18.57;;;5.30;99.90;;;;;;4988041;28;20485;-77
2021/03/24 01:53:41;;;;;;;34.47;20.80;;;5.40;99.90;;;;;;4973220;28;20419;-77
2021/03/24 01:56:09;;;;;;;33.53;18.60;;;5.20;99.90;;;;;;4973451;28;20450;-77
2021/03/24 01:58:36;;;;;;;28.40;19.40;;;5.20;99.90;;;;;;4977591;28;20551;-77
2021/03/24 02:01:05;;;;;;;36.43;21.10;;;5.20;99.90;;;;;;4983161;28;20927;-77
2021/03/24 02:03:32;;;;;;;30.37;17.90;;;5.30;99.90;;;;;;4990161;28;20428;-77
2021/03/24 02:06:01;;;;;;;32.83;20.30;;;5.20;99.90;;;;;;4974647;28;20421;-77
2021/03/24 02:08:32;;;;;;;29.20;19.57;;;5.30;99.90;;;;;;4973681;28;20522;-78
2021/03/24 02:11:18;;;;;;;27.73;17.57;;;5.30;99.90;;;;;;4973981;28;20571;-77
2021/03/24 02:14:13;;;;;;;26.10;17.93;;;5.30;99.90;;;;;;4973251;28;20431;-77
2021/03/24 02:16:44;;;;;;;29.40;17.83;;;5.20;99.90;;;;;;4954140;28;20465;-77
2021/03/24 02:19:28;;;;;;;26.70;17.63;;;5.10;99.90;;;;;;4974343;28;20515;-78
2021/03/24 02:21:56;;;;;;;31.70;19.60;;;5.10;99.90;;;;;;4973809;28;20416;-78
2021/03/24 02:25:05;;;;;;;35.63;21.03;;;5.10;99.90;;;;;;4973067;28;20405;-78
2021/03/24 02:27:38;;;;;;;28.50;19.37;;;5.20;99.90;;;;;;4953242;28;20417;-77
2021/03/24 02:30:23;;;;;;;31.97;19.03;;;5.20;99.90;;;;;;4965509;28;20440;-77
2021/03/24 02:32:56;;;;;;;37.07;21.87;;;5.20;99.90;;;;;;4976045;28;20724;-78
2021/03/24 02:35:28;;;;;;;29.30;19.17;;;5.10;99.90;;;;;;4978047;28;20503;-77
2021/03/24 02:37:57;;;;;;;27.80;18.50;;;5.00;99.90;;;;;;4978825;28;20474;-78
2021/03/24 02:40:23;;;;;;;32.60;19.77;;;5.10;99.90;;;;;;4976805;28;20420;-79
2021/03/24 02:42:51;;;;;;;32.43;18.83;;;5.00;99.90;;;;;;4976547;28;20551;-78
2021/03/24 02:45:27;;;;;;;32.27;19.53;;;5.00;99.90;;;;;;5007932;28;20401;-77
2021/03/24 02:47:57;;;;;;;29.43;16.97;;;5.00;99.90;;;;;;4977570;28;20411;-77
2021/03/24 02:50:23;;;;;;;40.53;19.93;;;5.00;99.90;;;;;;4975113;28;20956;-77
2021/03/24 02:52:49;;;;;;;32.47;20.03;;;5.00;99.90;;;;;;4976270;28;20432;-78
2021/03/24 02:55:16;;;;;;;28.97;18.17;;;5.00;99.90;;;;;;4976039;28;20443;-78
2021/03/24 02:57:42;;;;;;;28.47;17.50;;;5.00;99.90;;;;;;4981041;28;20466;-78
2021/03/24 03:00:13;;;;;;;26.73;17.53;;;5.00;99.90;;;;;;4986464;28;20424;-78
2021/03/24 03:02:42;;;;;;;31.00;19.33;;;5.00;99.90;;;;;;4976014;28;20447;-78
2021/03/24 03:05:12;;;;;;;37.73;18.73;;;5.00;99.90;;;;;;5007069;28;21001;-77
2021/03/24 03:07:49;;;;;;;29.47;18.73;;;5.00;99.90;;;;;;4976470;28;20424;-77
2021/03/24 03:10:15;;;;;;;31.77;17.87;;;5.00;99.90;;;;;;4976767;28;20412;-77
2021/03/24 03:12:51;;;;;;;32.80;18.83;;;5.00;99.90;;;;;;4975947;28;20417;-78
2021/03/24 03:15:28;;;;;;;27.13;17.30;;;5.00;99.90;;;;;;4975910;28;20831;-77
2021/03/24 03:18:00;;;;;;;31.53;17.77;;;5.00;99.90;;;;;;4976150;28;20456;-78
2021/03/24 03:20:28;;;;;;;35.40;19.63;;;4.90;99.90;;;;;;4975444;28;20415;-80
2021/03/24 03:23:09;;;;;;;29.93;19.07;;;4.90;99.90;;;;;;4975665;28;20400;-78
2021/03/24 03:25:38;;;;;;;31.67;19.57;;;5.00;99.90;;;;;;4975804;28;20871;-78
2021/03/24 03:28:08;;;;;;;27.70;18.20;;;5.00;99.90;;;;;;4972166;28;20435;-78
2021/03/24 03:30:38;;;;;;;31.00;19.50;;;4.90;99.90;;;;;;4974578;28;20941;-78
2021/03/24 03:33:07;;;;;;;29.10;18.40;;;4.80;99.90;;;;;;4973640;28;20427;-79
2021/03/24 03:35:35;;;;;;;29.23;19.13;;;4.60;99.90;;;;;;4975123;28;20505;-78
2021/03/24 03:38:02;;;;;;;35.53;21.30;;;4.40;99.90;;;;;;4975385;28;20463;-77
2021/03/24 03:40:33;;;;;;;37.77;19.90;;;4.20;99.90;;;;;;4974964;28;20442;-79
2021/03/24 03:43:00;;;;;;;37.20;21.37;;;4.20;99.90;;;;;;4989647;28;20480;-78
2021/03/24 03:45:26;;;;;;;33.73;19.53;;;4.10;99.90;;;;;;4968265;28;20434;-77
2021/03/24 03:47:52;;;;;;;27.30;19.20;;;4.00;99.90;;;;;;4973578;28;21087;-80
2021/03/24 03:50:22;;;;;;;33.33;20.00;;;4.00;99.90;;;;;;5008009;28;20446;-81
2021/03/24 03:53:13;;;;;;;37.23;22.33;;;3.90;99.90;;;;;;4974826;28;20185;-79
2021/03/24 03:55:48;;;;;;;38.03;21.30;;;3.90;99.90;;;;;;4974636;28;20970;-77
2021/03/24 03:58:24;;;;;;;31.70;19.37;;;3.90;99.90;;;;;;4981680;28;20837;-78
2021/03/24 04:00:57;;;;;;;30.70;19.60;;;3.90;99.90;;;;;;4973700;28;20431;-77
2021/03/24 04:03:31;;;;;;;33.20;19.00;;;3.80;99.90;;;;;;5005565;28;20411;-79
2021/03/24 04:06:01;;;;;;;35.83;20.67;;;3.90;99.90;;;;;;4974406;28;20561;-77
2021/03/24 04:08:32;;;;;;;35.07;19.73;;;3.90;99.90;;;;;;4974259;28;20450;-77
2021/03/24 04:11:03;;;;;;;35.63;20.07;;;3.90;99.90;;;;;;4955400;29;20402;-77
2021/03/24 04:13:31;;;;;;;35.93;20.00;;;4.00;99.90;;;;;;4955574;29;20480;-78
2021/03/24 04:15:59;;;;;;;39.35;21.80;;;4.00;99.90;;;;;;4955298;29;20816;-78
2021/03/24 04:18:53;;;;;;;36.33;20.60;;;4.00;99.90;;;;;;4955335;28;20433;-77
2021/03/24 04:21:21;;;;;;;33.77;19.87;;;4.10;99.90;;;;;;4955151;28;21130;-76
2021/03/24 04:23:57;;;;;;;32.83;21.23;;;4.20;99.90;;;;;;4970245;28;20431;-77
2021/03/24 04:26:27;;;;;;;35.43;20.63;;;4.30;99.90;;;;;;4961723;28;20797;-76
2021/03/24 04:28:57;;;;;;;31.87;18.70;;;4.30;99.90;;;;;;4974552;28;20456;-79
2021/03/24 04:31:26;;;;;;;34.30;19.53;;;4.30;99.90;;;;;;4974603;28;20457;-78
2021/03/24 04:33:52;;;;;;;35.13;18.97;;;4.30;99.90;;;;;;4974369;28;20444;-76
2021/03/24 04:36:29;;;;;;;27.90;18.80;;;4.40;99.90;;;;;;5005573;28;20459;-78
2021/03/24 04:39:00;;;;;;;33.20;19.80;;;4.40;99.90;;;;;;4974342;28;20858;-77
2021/03/24 04:41:29;;;;;;;32.60;18.53;;;4.40;99.90;;;;;;4974170;28;20403;-78
2021/03/24 04:44:09;;;;;;;39.57;20.50;;;4.40;99.90;;;;;;4974754;28;20424;-76
2021/03/24 04:46:40;;;;;;;26.80;18.43;;;4.50;99.90;;;;;;4982083;28;20558;-78
2021/03/24 04:49:12;;;;;;;35.47;18.47;;;4.50;99.90;;;;;;4973128;28;21004;-79
2021/03/24 04:51:40;;;;;;;33.77;18.17;;;4.50;99.90;;;;;;4957737;28;20414;-78
2021/03/24 04:54:28;;;;;;;37.20;20.20;;;4.50;99.90;;;;;;4954135;28;20975;-78
2021/03/24 04:57:08;;;;;;;32.73;19.43;;;4.40;99.90;;;;;;4967359;28;20496;-80
2021/03/24 04:59:41;;;;;;;26.80;18.80;;;4.30;99.90;;;;;;5004467;28;20459;-77
2021/03/24 05:02:29;;;;;;;30.23;18.17;;;4.20;99.90;;;;;;4973921;28;20988;-77
2021/03/24 05:05:20;;;;;;;37.97;23.50;;;4.00;99.90;;;;;;4974151;28;20426;-78
2021/03/24 05:07:54;;;;;;;32.13;20.40;;;4.00;99.90;;;;;;4954518;29;20392;-77
2021/03/24 05:10:24;;;;;;;39.27;20.67;;;3.90;99.90;;;;;;4954262;28;20400;-78
2021/03/24 05:12:58;;;;;;;30.23;21.33;;;3.90;99.90;;;;;;4954734;29;20397;-79
2021/03/24 05:15:31;;;;;;;37.73;21.30;;;3.80;99.90;;;;;;4955101;29;20483;-79
2021/03/24 05:17:57;;;;;;;35.53;22.07;;;3.80;99.90;;;;;;4952824;28;20552;-78
2021/03/24 05:20:28;;;;;;;33.50;20.20;;;3.80;99.90;;;;;;5001144;28;20415;-78
2021/03/24 05:22:54;;;;;;;37.73;21.83;;;3.70;99.90;;;;;;4973550;28;20469;-77
2021/03/24 05:25:29;;;;;;;36.47;20.23;;;3.60;99.90;;;;;;4972243;28;20782;-77
2021/03/24 05:28:02;;;;;;;43.10;24.03;;;3.60;99.90;;;;;;4971557;28;20443;-77
2021/03/24 05:30:34;;;;;;;30.20;18.37;;;3.60;99.90;;;;;;4973027;28;21088;-77
2021/03/24 05:33:09;;;;;;;38.00;21.77;;;3.60;99.90;;;;;;5004500;28;20460;-77
2021/03/24 05:35:53;;;;;;;36.63;22.80;;;3.60;99.90;;;;;;4972926;28;20783;-77
2021/03/24 05:38:41;;;;;;;36.20;23.10;;;3.50;99.90;;;;;;4963820;28;21016;-78
2021/03/24 05:41:11;;;;;;;32.90;20.73;;;3.50;99.90;;;;;;4994584;28;20861;-77
2021/03/24 05:44:22;;;;;;;35.33;20.30;;;3.50;99.90;;;;;;4979252;28;20760;-76
2021/03/24 05:47:24;;;;;;;38.30;21.10;;;3.50;99.90;;;;;;4972136;28;20468;-77
2021/03/24 05:50:16;;;;;;;34.57;22.33;;;3.40;99.90;;;;;;4972288;28;20442;-77
2021/03/24 05:53:09;;;;;;;43.87;22.83;;;3.50;99.90;;;;;;4972611;28;20431;-78
2021/03/24 05:55:59;;;;;;;37.43;21.90;;;3.50;99.90;;;;;;4972910;28;20482;-78
2021/03/24 05:58:41;;;;;;;44.13;24.47;;;3.60;99.90;;;;;;4973031;28;20467;-78
2021/03/24 06:01:14;;;;;;;34.70;23.40;;;3.60;99.90;;;;;;4972355;28;20419;-77
2021/03/24 06:03:56;;;;;;;43.57;22.77;;;3.60;99.90;;;;;;4972966;28;20506;-78
2021/03/24 06:07:09;;;;;;;54.13;22.17;;;3.70;99.90;;;;;;4965279;28;20420;-78
2021/03/24 06:09:49;;;;;;;54.30;23.83;;;3.90;99.90;;;;;;4991857;28;20450;-78
2021/03/24 06:12:32;;;;;;;44.50;22.97;;;3.90;99.90;;;;;;4975682;28;20419;-77
2021/03/24 06:15:07;;;;;;;43.70;25.20;;;4.00;99.90;;;;;;4976695;28;20402;-79
2021/03/24 06:17:58;;;;;;;42.43;24.30;;;4.30;99.90;;;;;;4985721;28;20967;-78
2021/03/24 06:20:36;;;;;;;42.87;23.90;;;4.30;99.90;;;;;;4976848;28;20389;-78
2021/03/24 06:23:35;;;;;;;35.63;21.97;;;4.30;99.90;;;;;;4991872;28;21136;-77
2021/03/24 06:26:19;;;;;;;32.60;21.53;;;4.60;99.90;;;;;;4960361;28;20924;-78
2021/03/24 06:29:04;;;;;;;32.97;20.87;;;4.70;99.90;;;;;;4991637;28;20443;-78
2021/03/24 06:31:48;;;;;;;29.90;20.50;;;5.00;99.90;;;;;;4976674;28;20909;-78
2021/03/24 06:34:39;;;;;;;35.67;22.83;;;5.20;99.90;;;;;;4976772;28;20755;-77
2021/03/24 06:37:16;;;;;;;35.23;20.80;;;5.30;99.90;;;;;;4976665;28;20444;-77
2021/03/24 06:39:56;;;;;;;41.10;21.67;;;5.50;99.90;;;;;;4976548;28;20763;-78
2021/03/24 06:42:37;;;;;;;40.63;24.33;;;5.50;99.90;;;;;;4976475;28;20408;-77
2021/03/24 06:45:09;;;;;;;36.30;22.37;;;5.50;99.90;;;;;;4976587;28;20391;-78
2021/03/24 06:47:45;;;;;;;33.67;20.97;;;5.40;99.90;;;;;;4976335;28;20922;-78
2021/03/24 06:50:48;;;;;;;38.57;22.07;;;5.40;99.90;;;;;;5007793;28;20404;-79
2021/03/24 06:53:43;;;;;;;34.73;23.17;;;5.30;99.90;;;;;;4976456;28;20950;-78
2021/03/24 06:56:28;;;;;;;35.63;21.40;;;5.30;99.90;;;;;;4976242;28;20440;-78
2021/03/24 06:59:14;;;;;;;38.93;21.97;;;5.30;99.90;;;;;;4976419;28;20929;-78
2021/03/24 07:01:50;;;;;;;31.70;20.03;;;5.30;99.90;;;;;;5007634;28;20451;-78
2021/03/24 07:04:34;;;;;;;33.07;21.63;;;5.40;99.90;;;;;;4976305;28;20408;-78
2021/03/24 07:07:32;;;;;;;42.17;22.30;;;5.40;99.90;;;;;;4976391;28;20459;-78
2021/03/24 07:10:13;;;;;;;33.77;21.87;;;5.50;99.90;;;;;;4974892;28;20444;-77
2021/03/24 07:13:05;;;;;;;33.70;21.73;;;5.70;99.90;;;;;;4976329;28;20405;-78
2021/03/24 07:16:01;;;;;;;37.97;22.10;;;5.80;99.90;;;;;;4976295;28;20404;-78
2021/03/24 07:19:00;;;;;;;34.80;22.10;;;5.90;99.90;;;;;;4975809;28;20448;-80
2021/03/24 07:21:55;;;;;;;42.03;23.60;;;6.10;99.90;;;;;;4976365;28;20471;-78
2021/03/24 07:24:50;;;;;;;41.83;20.73;;;6.50;99.90;;;;;;4975959;28;20464;-78
2021/03/24 07:27:30;;;;;;;33.07;20.83;;;7.30;99.90;;;;;;4975829;28;20902;-79
2021/03/24 07:30:27;;;;;;;28.23;20.00;;;8.30;99.90;;;;;;4990238;28;20447;-79
2021/03/24 07:33:06;;;;;;;40.43;21.33;;;9.30;99.90;;;;;;4990471;28;20424;-78
2021/03/24 07:35:39;;;;;;;29.63;19.83;;;10.10;99.90;;;;;;4975608;28;20400;-81
2021/03/24 07:38:23;;;;;;;35.50;20.87;;;10.60;99.90;;;;;;4975412;28;20463;-78
2021/03/24 07:41:19;;;;;;;34.07;21.70;;;11.40;99.90;;;;;;4976408;28;20408;-78
2021/03/24 07:44:10;;;;;;;31.50;21.10;;;11.70;99.90;;;;;;4975353;28;20407;-78
2021/03/24 07:46:54;;;;;;;28.23;20.77;;;12.50;99.90;;;;;;4975400;28;20503;-80
2021/03/24 07:49:35;;;;;;;32.13;21.80;;;13.00;99.90;;;;;;4974982;28;20422;-80
2021/03/24 07:52:09;;;;;;;26.23;18.70;;;13.40;99.90;;;;;;4975135;28;20405;-78
2021/03/24 07:54:56;;;;;;;31.33;24.90;;;13.80;99.90;;;;;;4975166;28;20423;-78
2021/03/24 07:57:37;;;;;;;29.07;19.00;;;14.10;99.90;;;;;;4975208;28;20437;-78
2021/03/24 08:00:14;;;;;;;30.57;20.73;;;13.90;99.90;;;;;;5006398;28;20421;-78
2021/03/24 08:03:00;;;;;;;34.83;22.07;;;14.10;99.90;;;;;;4974903;28;20507;-79
2021/03/24 08:05:35;;;;;;;32.03;19.07;;;14.70;99.90;;;;;;4975050;28;20400;-80
2021/03/24 08:08:10;;;;;;;24.23;18.07;;;14.80;99.90;;;;;;4974922;28;20427;-79
2021/03/24 08:10:50;;;;;;;27.07;19.40;;;14.70;99.90;;;;;;4975018;28;20811;-78
2021/03/24 08:13:53;;;;;;;28.33;19.43;;;14.30;99.90;;;;;;4973629;28;20401;-78
2021/03/24 08:16:33;;;;;;;27.80;17.17;;;14.40;99.90;;;;;;4974195;28;20503;-80
2021/03/24 08:19:23;;;;;;;26.07;18.43;;;14.50;99.90;;;;;;4974266;28;20567;-80
2021/03/24 08:22:19;;;;;;;23.70;18.23;;;14.30;99.90;;;;;;4955424;29;20433;-78
2021/03/24 08:24:45;;;;;;;28.37;18.37;;;14.70;99.90;;;;;;4989518;28;20421;-79
2021/03/24 08:27:22;;;;;;;31.93;19.27;;;15.20;99.90;;;;;;4989800;28;20421;-79
2021/03/24 08:29:59;;;;;;;26.23;18.00;;;16.00;99.90;;;;;;4973098;28;20552;-78
2021/03/24 08:32:56;;;;;;;32.53;20.17;;;16.30;99.90;;;;;;4968456;28;20420;-80
2021/03/24 08:35:38;;;;;;;30.93;21.00;;;17.10;99.90;;;;;;4974528;28;20392;-78
2021/03/24 08:38:29;;;;;;;31.30;20.80;;;17.50;99.90;;;;;;4974221;28;21052;-78
2021/03/24 08:41:25;;;;;;;26.30;17.83;;;17.70;99.90;;;;;;4989075;28;20883;-80
2021/03/24 08:44:03;;;;;;;31.77;21.50;;;18.20;99.10;;;;;;4974410;28;20505;-79
2021/03/24 08:47:08;;;;;;;34.87;22.00;;;18.30;94.70;;;;;;4974304;28;20411;-78
2021/03/24 08:49:36;;;;;;;23.07;19.10;;;18.50;94.20;;;;;;4972473;28;20519;-79
2021/03/24 08:52:05;;;;;;;31.17;19.97;;;17.90;95.30;;;;;;4973103;28;20429;-80
2021/03/24 08:54:40;;;;;;;27.40;19.23;;;18.60;94.70;;;;;;4973659;28;20420;-79
2021/03/24 08:57:29;;;;;;;30.27;19.63;;;19.00;90.40;;;;;;4973631;28;20463;-78
2021/03/24 09:00:02;;;;;;;28.63;19.30;;;19.00;90.50;;;;;;5001513;28;20433;-79
2021/03/24 09:02:46;;;;;;;27.57;20.57;;;19.30;90.40;;;;;;4987427;28;21025;-79
2021/03/24 09:05:28;;;;;;;31.23;21.40;;;19.60;89.10;;;;;;4973496;28;20444;-79
2021/03/24 09:08:15;;;;;;;35.03;23.37;;;19.90;84.80;;;;;;5005050;28;20456;-79
2021/03/24 09:10:46;;;;;;;31.03;20.97;;;19.80;78.40;;;;;;4973939;28;20736;-78
2021/03/24 09:13:22;;;;;;;31.10;23.20;;;20.10;83.10;;;;;;4973803;28;20417;-79
2021/03/24 09:16:22;;;;;;;31.43;21.07;;;20.00;78.20;;;;;;4974028;28;20416;-79
2021/03/24 09:18:55;;;;;;;31.37;23.10;;;19.80;75.70;;;;;;4973950;28;20473;-74
2021/03/24 09:21:29;;;;;;;35.60;23.47;;;19.40;80.70;;;;;;4973119;28;20953;-74
2021/03/24 09:24:28;;;;;;;30.20;22.47;;;18.80;81.20;;;;;;4973023;28;20408;-74
2021/03/24 09:27:06;;;;;;;30.80;23.57;;;19.80;83.90;;;;;;4972709;28;20404;-74
2021/03/24 09:29:38;;;;;;;35.23;23.63;;;19.80;81.00;;;;;;4971554;28;20445;-74
2021/03/24 09:32:27;;;;;;;33.77;23.67;;;19.60;82.60;;;;;;4974233;28;20496;-74
2021/03/24 09:34:53;;;;;;;36.00;25.30;;;20.40;83.50;;;;;;4972590;28;20424;-75
2021/03/24 09:37:24;;;;;;;36.73;25.70;;;20.80;82.90;;;;;;4972867;28;20449;-74
2021/03/24 09:39:59;;;;;;;38.03;26.87;;;20.50;78.90;;;;;;5003351;28;20190;-74
2021/03/24 09:42:31;;;;;;;40.40;26.07;;;20.60;83.00;;;;;;4987743;28;20436;-74
2021/03/24 09:44:57;;;;;;;34.97;25.03;;;20.60;77.90;;;;;;4972555;28;20508;-75
2021/03/24 09:47:47;;;;;;;32.17;24.90;;;19.70;77.10;;;;;;4972979;28;20508;-74
2021/03/24 09:50:19;;;;;;;32.23;23.80;;;20.60;78.50;;;;;;4987220;28;20188;-75
2021/03/24 09:52:54;;;;;;;35.70;25.17;;;19.70;78.00;;;;;;4970939;28;20421;-74
2021/03/24 09:55:27;;;;;;;38.97;26.00;;;20.00;81.70;;;;;;4970582;28;20436;-74
2021/03/24 09:58:32;;;;;;;32.30;20.90;;;20.20;81.10;;;;;;4972732;28;20441;-73
2021/03/24 10:01:04;;;;;;;30.10;21.47;;;20.00;78.70;;;;;;4970690;28;20463;-73
2021/03/24 10:03:52;;;;;;;31.73;22.17;;;20.10;72.90;;;;;;4973626;28;20432;-73
2021/03/24 10:06:21;;;;;;;33.63;19.97;;;20.10;72.40;;;;;;4973072;28;20472;-73
2021/03/24 10:08:59;;;;;;;33.73;19.67;;;19.60;69.80;;;;;;4973102;28;20441;-73
2021/03/24 10:11:29;;;;;;;31.37;19.90;;;19.70;74.00;;;;;;4972993;28;20495;-73
2021/03/24 10:14:10;;;;;;;27.17;19.00;;;20.10;71.80;;;;;;4972630;28;20487;-74
2021/03/24 10:16:42;;;;;;;29.83;18.53;;;19.70;71.50;;;;;;4972348;28;20444;-74
2021/03/24 10:19:16;;;;;;;28.97;20.00;;;19.80;68.10;;;;;;4972260;28;20491;-74
2021/03/24 10:21:55;;;;;;;27.17;19.50;;;20.60;69.50;;;;;;4971962;28;20467;-73
2021/03/24 10:24:26;;;;;;;44.37;21.67;;;20.30;67.70;;;;;;4972124;28;20784;-73
2021/03/24 10:27:10;;;;;;;27.20;19.73;;;20.70;68.50;;;;;;4972365;28;20854;-74
2021/03/24 10:29:48;;;;;;;34.17;21.37;;;21.00;65.00;;;;;;4972564;28;20515;-74
2021/03/24 10:32:24;;;;;;;38.43;24.23;;;21.70;63.40;;;;;;4971776;28;20825;-74
2021/03/24 10:34:57;;;;;;;30.63;22.50;;;21.80;60.10;;;;;;4971859;28;20852;-74
2021/03/24 10:37:52;;;;;;;35.60;24.27;;;21.80;60.90;;;;;;4966423;28;20464;-74
2021/03/24 10:40:26;;;;;;;33.60;24.17;;;21.10;61.00;;;;;;4972251;28;20440;-73
2021/03/24 10:43:02;;;;;;;36.63;25.73;;;22.20;61.30;;;;;;4972785;28;20403;-75
2021/03/24 10:45:49;;;;;;;36.57;25.80;;;21.60;58.80;;;;;;4972568;28;20416;-73
2021/03/24 10:48:20;;;;;;;35.47;25.87;;;21.40;60.00;;;;;;4972311;28;20530;-75
2021/03/24 10:50:49;;;;;;;37.73;24.50;;;21.10;60.60;;;;;;4986528;28;20429;-73
2021/03/24 10:53:26;;;;;;;34.37;25.57;;;21.50;61.60;;;;;;4971452;28;20405;-74
2021/03/24 10:56:26;;;;;;;43.43;33.43;;;22.00;59.50;;;;;;4975742;28;20548;-73
2021/03/24 10:58:59;;;;;;;40.10;28.10;;;21.30;61.00;;;;;;4954404;28;20460;-74
2021/03/24 11:01:31;;;;;;;39.33;25.53;;;21.10;59.70;;;;;;4956895;28;20796;-74
2021/03/24 11:04:06;;;;;;;36.83;25.63;;;20.90;59.20;;;;;;4972235;28;20421;-74
2021/03/24 11:06:37;;;;;;;33.63;24.00;;;21.50;60.30;;;;;;4976375;28;20416;-74
2021/03/24 11:09:12;;;;;;;40.87;25.70;;;22.00;61.10;;;;;;4975155;28;20448;-75
2021/03/24 11:11:41;;;;;;;39.70;26.90;;;21.40;59.60;;;;;;4975279;28;20428;-74
2021/03/24 11:14:34;;;;;;;43.30;26.03;;;20.20;61.50;;;;;;4974502;28;20393;-74
2021/03/24 11:17:29;;;;;;;46.70;28.93;;;19.80;64.50;;;;;;4973426;28;20888;-75
2021/03/24 11:20:08;;;;;;;38.80;26.33;;;19.90;64.40;;;;;;4974581;28;20499;-74
2021/03/24 11:22:43;;;;;;;43.47;27.97;;;20.60;64.50;;;;;;4973865;28;20417;-74
2021/03/24 11:25:37;;;;;;;40.87;27.27;;;20.40;61.80;;;;;;4975062;28;20567;-75
2021/03/24 11:28:23;;;;;;;42.70;28.23;;;20.20;61.50;;;;;;4974888;28;20580;-74
2021/03/24 11:31:00;;;;;;;41.80;25.40;;;20.00;62.70;;;;;;4974812;28;20397;-75
2021/03/24 11:33:49;;;;;;;43.90;27.40;;;20.50;61.20;;;;;;4975110;28;20503;-74
2021/03/24 11:36:23;;;;;;;45.70;29.20;;;20.50;59.40;;;;;;4974595;28;20432;-75
2021/03/24 11:39:03;;;;;;;49.07;29.03;;;20.50;61.40;;;;;;4973033;28;20841;-74
2021/03/24 11:41:33;;;;;;;57.03;28.10;;;19.80;59.80;;;;;;4970110;28;20855;-74
2021/03/24 11:44:04;;;;;;;41.17;27.17;;;19.90;60.20;;;;;;4974666;28;20417;-74
2021/03/24 11:46:41;;;;;;;48.63;29.00;;;20.70;59.60;;;;;;4974477;28;20468;-74
2021/03/24 11:49:31;;;;;;;42.13;27.00;;;20.70;59.90;;;;;;4972018;28;20429;-75
2021/03/24 11:52:18;;;;;;;43.80;27.73;;;21.40;60.20;;;;;;4973949;28;20405;-74
2021/03/24 11:54:46;;;;;;;51.53;28.37;;;22.00;60.30;;;;;;4974190;28;20431;-75
2021/03/24 11:57:20;;;;;;;43.03;26.90;;;22.50;60.10;;;;;;4974538;28;20444;-73
2021/03/24 12:00:14;;;;;;;42.33;26.40;;;22.60;58.30;;;;;;4974287;28;20429;-74
2021/03/24 12:03:17;;;;;;;41.63;27.43;;;21.40;57.80;;;;;;5000085;28;20475;-74
2021/03/24 12:05:59;;;;;;;46.00;28.47;;;20.80;58.40;;;;;;4973930;28;20408;-74
2021/03/24 12:08:46;;;;;;;40.90;26.20;;;20.70;58.50;;;;;;4973665;28;20794;-75
2021/03/24 12:11:19;;;;;;;50.27;29.87;;;20.50;58.30;;;;;;4972991;28;20508;-75
2021/03/24 12:13:45;;;;;;;39.23;26.77;;;20.60;59.60;;;;;;4974361;28;20508;-74
2021/03/24 12:16:19;;;;;;;60.50;39.67;;;20.80;58.30;;;;;;4973850;28;20511;-75
2021/03/24 12:18:52;;;;;;;44.87;27.37;;;20.90;58.30;;;;;;4973717;28;20429;-75
2021/03/24 12:21:28;;;;;;;39.70;26.37;;;20.80;58.80;;;;;;4974610;28;21119;-74
2021/03/24 12:23:57;;;;;;;37.43;26.77;;;20.80;59.90;;;;;;5001622;28;20757;-74
2021/03/24 12:26:38;;;;;;;36.90;25.47;;;21.00;59.60;;;;;;4973580;28;20401;-74
2021/03/24 12:29:14;;;;;;;41.67;27.60;;;21.30;59.00;;;;;;4973369;28;20791;-74
2021/03/24 12:32:23;;;;;;;41.97;25.70;;;21.70;59.20;;;;;;4973759;28;20408;-74
2021/03/24 12:34:50;;;;;;;39.77;25.87;;;21.60;57.30;;;;;;4964343;28;20412;-75
2021/03/24 12:37:33;;;;;;;37.70;25.73;;;21.20;57.20;;;;;;4973782;28;20981;-74
2021/03/24 12:40:18;;;;;;;35.00;24.80;;;21.50;58.10;;;;;;5004252;28;20437;-74
2021/03/24 12:42:44;;;;;;;36.40;25.20;;;22.00;56.80;;;;;;4973707;28;20496;-74
2021/03/24 12:45:31;;;;;;;41.57;26.10;;;22.30;56.80;;;;;;4973850;28;20781;-75
2021/03/24 12:48:10;;;;;;;33.47;25.10;;;22.40;57.00;;;;;;4973714;28;20413;-73
2021/03/24 12:50:58;;;;;;;36.37;26.87;;;22.50;58.40;;;;;;4975491;28;20413;-73
2021/03/24 12:53:45;;;;;;;33.30;23.50;;;22.40;56.80;;;;;;4975726;28;20416;-75
2021/03/24 12:56:46;;;;;;;38.93;26.37;;;21.60;58.30;;;;;;4972511;28;20441;-75
2021/03/24 12:59:50;;;;;;;36.50;24.03;;;21.10;57.90;;;;;;4973756;28;20520;-75
2021/03/24 13:02:18;;;;;;;37.33;22.23;;;21.60;58.00;;;;;;4972201;28;20427;-74
2021/03/24 13:05:05;;;;;;;40.23;23.37;;;21.10;55.50;;;;;;4973334;28;20487;-74
2021/03/24 13:08:06;;;;;;;35.27;23.60;;;20.90;55.90;;;;;;4972277;28;20499;-74
2021/03/24 13:10:51;;;;;;;34.00;21.70;;;21.50;57.00;;;;;;4953962;28;20421;-75
2021/03/24 13:13:45;;;;;;;32.83;22.43;;;21.10;56.70;;;;;;4986833;28;20935;-77
2021/03/24 13:16:18;;;;;;;35.20;21.10;;;21.50;57.80;;;;;;4965236;28;20440;-77
2021/03/24 13:18:50;;;;;;;34.77;23.43;;;22.00;57.00;;;;;;4972216;28;20492;-75
2021/03/24 13:21:50;;;;;;;33.37;21.60;;;22.40;57.20;;;;;;4972352;28;20425;-76
2021/03/24 13:24:34;;;;;;;31.53;22.30;;;22.30;55.20;;;;;;4973138;28;20417;-75